Terminal Aerodrome Forecast
Issued by NWS Portland, OR

Home | Current Version | Previous Version | Text Only | Print | Product List | Glossary On
Versions: 1 2 3 4 5 6 7 8 9 10 11 12 13 14 15 16 17 18 19 20 21 22 23 24 25 26 27 28 29 30 31 32 33 34 35 36 37 38 39 40 41
000
FTUS46 KPQR 311329 AAC
TAFAST
TAF AMD
KAST 311329Z 3113/0112 21010KT P6SM -RA SCT025 OVC035
      TEMPO 3113/3116 4SM -RA BR SCT009 BKN015 OVC025
     FM311600 22010KT P6SM -RA BKN015
     FM311900 21012KT P6SM -RA SCT015 BKN025
     FM312200 22008KT P6SM SCT025 BKN050
     FM010500 21006KT P6SM OVC025=

USA.gov is the U.S. government's official web portal to all federal, state and local government web resources and services.